KMAI

Marianna Municipal Airport

Marianna, Florida, USA
METAR KMAI 210353Z AUTO 00000KT 10SM CLR 24/24 A3007 RMK AO2 SLP181 T02390239
Observed Flight Rules
Aug-21 @ 03:53 UTC (17 minutes ago) Visual Flight Rules
Visibility Clouds
10 miles
  • Clear skies
Temperatures Readings
Current 24°C / 75°F
Dewpoint 24°C / 75°F
Humidity 100%
Altimeter 30.07" Hg
Pressure 1018.1 hPa
Elevation 32
METAR KMAI 210353Z AUTO 00000KT 10SM CLR 24/24 A3007 RMK AO2 SLP181 T02390239
Observed Flight Rules
Aug-21 @ 03:53 UTC
(17 minutes ago)
VFR
Clouds
  • Clear skies
Temperature Dewpoint
24°C / 75°F 24°C / 75°F
Humidity Altimeter Pressure
100% 30.07" Hg 1018.1 hPa